Time;durP1;ratioP1;P1;durP2;ratioP2;P2;SDS_P1;SDS_P2;PMS_P1;PMS_P2;Temp;Humidity;BMP_temperature;BMP_pressure;BME280_temperature;BME280_humidity;BME280_pressure;Samples;Min_cycle;Max_cycle;Signal;HPM_P1;HPM_P2
2021/10/21 00:01:24;;;;;;;43.88;29.70;;;10.90;99.90;;;;;;5055555;28;20178;-85
2021/10/21 00:03:50;;;;;;;53.03;31.63;;;10.80;99.90;;;;;;5055548;28;20188;-85
2021/10/21 00:06:16;;;;;;;41.80;29.27;;;10.80;99.90;;;;;;5055696;28;20556;-93
2021/10/21 00:08:42;;;;;;;45.77;31.40;;;10.70;99.90;;;;;;5055888;28;20185;-92
2021/10/21 00:11:09;;;;;;;47.83;31.50;;;10.60;99.90;;;;;;5056177;28;20521;-86
2021/10/21 00:13:36;;;;;;;49.97;30.65;;;10.60;99.90;;;;;;5055402;28;20295;-92
2021/10/21 00:16:02;;;;;;;53.03;32.00;;;10.60;99.90;;;;;;5056408;28;20202;-91
2021/10/21 00:18:27;;;;;;;45.03;30.77;;;10.60;99.90;;;;;;5055244;28;20497;-94
2021/10/21 00:20:55;;;;;;;43.90;29.90;;;10.60;99.90;;;;;;5055516;28;20198;-85
2021/10/21 00:23:20;;;;;;;52.55;32.00;;;10.60;99.90;;;;;;5055882;28;20315;-85
2021/10/21 00:25:47;;;;;;;49.87;33.03;;;10.60;99.90;;;;;;5055066;28;20231;-85
2021/10/21 00:28:14;;;;;;;52.72;32.17;;;10.60;99.90;;;;;;5054832;28;20186;-86
2021/10/21 00:30:40;;;;;;;55.45;32.75;;;10.60;99.90;;;;;;5055142;28;20190;-93
2021/10/21 00:33:06;;;;;;;46.40;29.98;;;10.60;99.90;;;;;;5055297;28;20185;-93
2021/10/21 00:35:34;;;;;;;51.03;34.40;;;10.60;99.90;;;;;;5056432;28;20186;-85
2021/10/21 00:38:00;;;;;;;47.67;30.67;;;10.50;99.90;;;;;;5054851;28;20478;-93
2021/10/21 00:40:29;;;;;;;46.20;30.30;;;10.50;99.90;;;;;;5055929;28;20243;-85
2021/10/21 00:42:54;;;;;;;46.17;30.85;;;10.40;99.90;;;;;;5055340;28;20182;-85
2021/10/21 00:45:20;;;;;;;47.00;31.50;;;10.40;99.90;;;;;;5055667;28;20196;-92
2021/10/21 00:47:46;;;;;;;47.30;30.60;;;10.30;99.90;;;;;;5055264;28;20427;-85
2021/10/21 00:50:13;;;;;;;48.50;30.77;;;10.30;99.90;;;;;;5056013;28;20205;-92
2021/10/21 00:52:39;;;;;;;47.72;31.17;;;10.20;99.90;;;;;;5055879;28;20193;-86
2021/10/21 00:55:07;;;;;;;53.70;34.38;;;10.20;99.90;;;;;;5056660;28;20212;-85
2021/10/21 00:57:33;;;;;;;59.47;32.25;;;10.10;99.90;;;;;;5057553;28;20209;-85
2021/10/21 00:59:59;;;;;;;52.22;32.83;;;10.10;99.90;;;;;;5057393;28;20196;-93
2021/10/21 01:02:26;;;;;;;55.60;33.53;;;10.00;99.90;;;;;;5065236;28;20209;-86
2021/10/21 01:04:52;;;;;;;52.10;33.58;;;10.00;99.90;;;;;;5067082;28;20198;-85
2021/10/21 01:07:20;;;;;;;46.47;32.42;;;10.00;99.90;;;;;;5057110;28;20182;-86
2021/10/21 01:09:47;;;;;;;52.30;32.88;;;9.90;99.90;;;;;;5059064;28;20197;-93
2021/10/21 01:12:13;;;;;;;49.75;32.45;;;9.90;99.90;;;;;;5055919;28;20189;-89
2021/10/21 01:14:40;;;;;;;53.53;33.22;;;9.90;99.90;;;;;;5055340;28;20241;-85
2021/10/21 01:17:06;;;;;;;47.20;30.80;;;9.90;99.90;;;;;;5057975;28;20647;-92
2021/10/21 01:19:32;;;;;;;47.20;31.30;;;9.80;99.90;;;;;;5056976;28;20221;-93
2021/10/21 01:21:58;;;;;;;51.65;33.97;;;9.80;99.90;;;;;;5054654;28;20174;-92
2021/10/21 01:24:25;;;;;;;49.03;33.10;;;9.80;99.90;;;;;;5054790;28;20255;-92
2021/10/21 01:26:54;;;;;;;50.60;33.05;;;9.80;99.90;;;;;;5055595;28;20185;-85
2021/10/21 01:29:22;;;;;;;55.58;33.53;;;9.80;99.90;;;;;;5053672;28;20202;-85
2021/10/21 01:31:49;;;;;;;51.47;34.35;;;9.80;99.90;;;;;;5053995;28;20185;-85
2021/10/21 01:34:15;;;;;;;49.92;32.92;;;9.80;99.90;;;;;;5054280;28;20247;-85
2021/10/21 01:36:44;;;;;;;50.65;31.98;;;9.70;99.90;;;;;;5054237;28;20174;-85
2021/10/21 01:39:12;;;;;;;50.30;32.78;;;9.70;99.90;;;;;;5053553;28;20221;-93
2021/10/21 01:41:39;;;;;;;57.17;35.03;;;9.60;99.90;;;;;;5054873;28;20170;-85
2021/10/21 01:44:06;;;;;;;51.50;32.60;;;9.60;99.90;;;;;;5054418;28;20658;-85
2021/10/21 01:46:33;;;;;;;46.35;31.55;;;9.50;99.90;;;;;;5053543;28;20174;-86
2021/10/21 01:48:59;;;;;;;53.45;34.08;;;9.50;99.90;;;;;;5054073;28;20186;-93
2021/10/21 01:51:26;;;;;;;57.67;34.23;;;9.50;99.90;;;;;;5054700;28;20180;-92
2021/10/21 01:53:56;;;;;;;54.83;33.47;;;9.40;99.90;;;;;;5053734;28;20225;-85
2021/10/21 01:56:23;;;;;;;59.78;34.80;;;9.40;99.90;;;;;;5053503;28;20197;-85
2021/10/21 01:58:50;;;;;;;54.17;33.17;;;9.40;99.90;;;;;;5053665;28;20221;-85
2021/10/21 02:01:15;;;;;;;52.80;36.45;;;9.30;99.90;;;;;;5053882;28;20225;-92
2021/10/21 02:03:41;;;;;;;53.07;34.80;;;9.30;99.90;;;;;;5053685;28;20643;-92
2021/10/21 02:06:08;;;;;;;53.70;36.08;;;9.20;99.90;;;;;;5053840;28;20224;-92
2021/10/21 02:08:36;;;;;;;60.70;37.58;;;9.20;99.90;;;;;;5054680;28;20186;-85
2021/10/21 02:11:02;;;;;;;55.40;35.55;;;9.20;99.90;;;;;;5054293;28;20198;-93
2021/10/21 02:13:28;;;;;;;53.13;34.07;;;9.10;99.90;;;;;;5054177;28;20596;-92
2021/10/21 02:15:54;;;;;;;54.80;34.13;;;9.10;99.90;;;;;;5054880;28;20212;-92
2021/10/21 02:18:21;;;;;;;63.53;36.40;;;9.10;99.90;;;;;;5053678;28;20214;-85
2021/10/21 02:20:47;;;;;;;52.92;34.85;;;9.10;99.90;;;;;;5054616;28;20197;-92
2021/10/21 02:23:21;;;;;;;54.20;36.57;;;9.10;99.90;;;;;;5053786;28;20185;-86
2021/10/21 02:25:47;;;;;;;53.58;35.83;;;9.10;99.90;;;;;;5059308;28;20190;-93
2021/10/21 02:28:14;;;;;;;53.03;35.10;;;9.10;99.90;;;;;;5067696;28;20192;-85
2021/10/21 02:30:40;;;;;;;53.92;35.35;;;9.10;99.90;;;;;;5075778;28;20426;-90
2021/10/21 02:33:05;;;;;;;50.13;35.30;;;9.10;99.90;;;;;;5061095;28;20197;-92
2021/10/21 02:35:34;;;;;;;55.23;35.07;;;9.10;99.90;;;;;;5057927;28;20202;-85
2021/10/21 02:38:00;;;;;;;60.72;37.83;;;9.10;99.90;;;;;;5057786;28;20209;-92
2021/10/21 02:40:26;;;;;;;52.93;36.23;;;9.10;99.90;;;;;;5057211;28;20190;-93
2021/10/21 02:42:52;;;;;;;57.43;35.30;;;9.10;99.90;;;;;;5057251;28;20425;-85
2021/10/21 02:45:18;;;;;;;52.72;34.70;;;9.10;99.90;;;;;;5057008;28;21016;-91
2021/10/21 02:47:44;;;;;;;51.00;35.37;;;9.10;99.90;;;;;;5057500;28;20193;-91
2021/10/21 02:50:11;;;;;;;57.95;35.42;;;9.10;99.90;;;;;;5057949;28;20197;-92
2021/10/21 02:52:37;;;;;;;53.35;35.00;;;9.10;99.90;;;;;;5057521;28;20182;-91
2021/10/21 02:55:04;;;;;;;53.83;34.78;;;9.10;99.90;;;;;;5057462;28;20204;-88
2021/10/21 02:57:30;;;;;;;52.40;33.38;;;9.10;99.90;;;;;;5056942;28;20186;-85
2021/10/21 02:59:56;;;;;;;54.85;33.85;;;9.10;99.90;;;;;;5056763;28;20671;-85
2021/10/21 03:02:22;;;;;;;49.70;32.90;;;9.10;99.90;;;;;;5058516;28;20188;-93
2021/10/21 03:04:52;;;;;;;52.20;33.23;;;9.10;99.90;;;;;;5057458;28;20197;-85
2021/10/21 03:07:18;;;;;;;47.13;31.25;;;9.20;99.90;;;;;;5057365;28;20543;-93
2021/10/21 03:09:45;;;;;;;49.97;32.70;;;9.20;99.90;;;;;;5056774;28;20197;-85
2021/10/21 03:12:11;;;;;;;49.70;31.77;;;9.20;99.90;;;;;;5056994;28;20332;-92
2021/10/21 03:14:37;;;;;;;54.10;34.90;;;9.20;99.90;;;;;;5056699;28;20267;-85
2021/10/21 03:17:04;;;;;;;48.13;32.75;;;9.20;99.90;;;;;;5056810;28;20176;-86
2021/10/21 03:19:30;;;;;;;49.88;33.17;;;9.20;99.90;;;;;;5056271;28;20221;-94
2021/10/21 03:22:02;;;;;;;49.30;32.80;;;9.20;99.90;;;;;;5056539;28;20178;-86
2021/10/21 03:24:28;;;;;;;49.20;31.50;;;9.20;99.90;;;;;;5056650;28;20209;-90
2021/10/21 03:26:54;;;;;;;45.50;32.83;;;9.20;99.90;;;;;;5057754;28;20166;-92
2021/10/21 03:29:21;;;;;;;49.88;33.13;;;9.20;99.90;;;;;;5057067;28;20658;-85
2021/10/21 03:31:47;;;;;;;48.65;31.20;;;9.20;99.90;;;;;;5057142;28;20178;-86
2021/10/21 03:34:14;;;;;;;51.58;31.63;;;9.20;99.90;;;;;;5056915;28;20260;-86
2021/10/21 03:36:40;;;;;;;61.80;32.47;;;9.20;99.90;;;;;;5055199;28;20185;-92
2021/10/21 03:39:06;;;;;;;49.88;30.85;;;9.20;99.90;;;;;;5056184;28;20236;-92
2021/10/21 03:41:32;;;;;;;45.17;29.97;;;9.20;99.90;;;;;;5056529;28;20504;-90
2021/10/21 03:44:00;;;;;;;49.50;30.47;;;9.10;99.90;;;;;;5057095;28;20462;-86
2021/10/21 03:46:26;;;;;;;44.70;31.30;;;9.10;99.90;;;;;;5056132;28;20188;-93
2021/10/21 03:48:53;;;;;;;47.77;30.10;;;9.10;99.90;;;;;;5057032;28;20178;-86
2021/10/21 03:51:18;;;;;;;42.80;30.05;;;9.10;99.90;;;;;;5057719;28;20205;-92
2021/10/21 03:53:44;;;;;;;47.77;31.80;;;9.00;99.90;;;;;;5059846;28;20190;-89
2021/10/21 03:56:11;;;;;;;49.40;31.43;;;9.00;99.90;;;;;;5063413;28;20197;-86
2021/10/21 03:58:37;;;;;;;45.80;30.33;;;9.00;99.90;;;;;;5068187;28;20547;-84
2021/10/21 04:01:03;;;;;;;51.00;32.30;;;9.00;99.90;;;;;;5061726;28;20268;-86
2021/10/21 04:03:29;;;;;;;47.47;32.60;;;9.00;99.90;;;;;;5061858;28;20212;-89
2021/10/21 04:05:55;;;;;;;51.08;32.28;;;9.00;99.90;;;;;;5061725;28;20194;-93
2021/10/21 04:08:21;;;;;;;44.20;29.53;;;9.00;99.90;;;;;;5064061;28;20189;-85
2021/10/21 04:10:47;;;;;;;44.47;30.98;;;9.00;99.90;;;;;;5074729;28;20441;-86
2021/10/21 04:13:13;;;;;;;45.10;30.67;;;9.00;99.90;;;;;;5070232;28;20273;-91
2021/10/21 04:15:40;;;;;;;47.93;33.03;;;9.00;99.90;;;;;;5071495;28;20430;-90
2021/10/21 04:18:06;;;;;;;43.13;29.60;;;9.00;99.90;;;;;;5057682;28;20355;-92
2021/10/21 04:20:32;;;;;;;46.05;29.80;;;9.00;99.90;;;;;;5068865;28;20200;-91
2021/10/21 04:22:58;;;;;;;43.33;29.30;;;9.00;99.90;;;;;;5062100;28;20245;-91
2021/10/21 04:25:25;;;;;;;45.13;30.13;;;9.10;99.90;;;;;;5055311;28;20434;-86
2021/10/21 04:27:51;;;;;;;44.45;30.70;;;9.10;99.90;;;;;;5060288;28;20178;-92
2021/10/21 04:30:19;;;;;;;46.93;30.30;;;9.10;99.90;;;;;;5057299;28;20209;-86
2021/10/21 04:32:45;;;;;;;46.97;28.30;;;9.20;99.90;;;;;;5059162;28;20500;-86
2021/10/21 04:35:12;;;;;;;40.55;27.98;;;9.20;99.90;;;;;;5058984;28;20229;-86
2021/10/21 04:37:38;;;;;;;42.17;26.33;;;9.30;99.90;;;;;;5058366;28;20226;-92
2021/10/21 04:40:05;;;;;;;34.47;25.30;;;9.30;99.90;;;;;;5057738;28;20217;-91
2021/10/21 04:42:31;;;;;;;38.72;25.95;;;9.40;99.90;;;;;;5055608;28;20595;-86
2021/10/21 04:44:57;;;;;;;37.05;24.85;;;9.50;99.90;;;;;;5054963;28;20202;-91
2021/10/21 04:47:24;;;;;;;37.38;26.13;;;9.50;99.90;;;;;;5054007;28;20194;-85
2021/10/21 04:49:51;;;;;;;34.70;25.42;;;9.50;99.90;;;;;;5054816;28;20289;-86
2021/10/21 04:52:17;;;;;;;39.42;25.92;;;9.50;99.90;;;;;;5054825;28;20196;-86
2021/10/21 04:54:44;;;;;;;47.70;28.08;;;9.50;99.90;;;;;;5055904;28;20205;-86
2021/10/21 04:57:10;;;;;;;38.58;25.58;;;9.50;99.90;;;;;;5054039;28;20557;-86
2021/10/21 04:59:38;;;;;;;36.95;23.13;;;9.60;99.90;;;;;;5054745;28;20597;-85
2021/10/21 05:02:03;;;;;;;38.63;27.60;;;9.60;99.90;;;;;;5056011;28;20591;-93
2021/10/21 05:04:29;;;;;;;38.73;25.00;;;9.60;99.90;;;;;;5051374;28;20202;-86
2021/10/21 05:06:55;;;;;;;41.22;27.17;;;9.60;99.90;;;;;;5036842;28;20166;-92
2021/10/21 05:09:21;;;;;;;36.70;25.80;;;9.60;99.90;;;;;;5051830;28;20701;-93
2021/10/21 05:11:47;;;;;;;36.43;25.73;;;9.60;99.90;;;;;;5051410;28;20166;-92
2021/10/21 05:14:13;;;;;;;36.13;25.52;;;9.60;99.90;;;;;;5050947;28;20578;-86
2021/10/21 05:16:38;;;;;;;35.95;24.27;;;9.60;99.90;;;;;;5053261;28;20261;-93
2021/10/21 05:19:04;;;;;;;40.30;27.43;;;9.60;99.90;;;;;;5053116;28;20350;-86
2021/10/21 05:21:30;;;;;;;40.50;25.37;;;9.60;99.90;;;;;;5053469;28;20201;-91
2021/10/21 05:23:55;;;;;;;36.17;26.20;;;9.60;99.90;;;;;;5055711;28;20208;-93
2021/10/21 05:26:21;;;;;;;36.70;25.77;;;9.60;99.90;;;;;;5048409;28;20271;-90
2021/10/21 05:28:49;;;;;;;38.00;25.87;;;9.60;99.90;;;;;;5051401;28;20185;-86
2021/10/21 05:31:16;;;;;;;34.13;24.67;;;9.60;99.90;;;;;;5060226;28;20499;-86
2021/10/21 05:33:42;;;;;;;34.33;24.83;;;9.60;99.90;;;;;;5052136;28;20182;-93
2021/10/21 05:36:09;;;;;;;39.78;26.17;;;9.60;99.90;;;;;;5052876;28;20212;-85
2021/10/21 05:38:35;;;;;;;36.47;26.35;;;9.60;99.90;;;;;;5051749;28;20225;-86
2021/10/21 05:41:01;;;;;;;35.40;25.80;;;9.60;99.90;;;;;;5050626;28;20225;-85
2021/10/21 05:43:27;;;;;;;36.13;25.35;;;9.60;99.90;;;;;;5048022;28;20612;-85
2021/10/21 05:45:53;;;;;;;41.60;28.20;;;9.70;99.90;;;;;;5051925;28;20260;-92
2021/10/21 05:48:18;;;;;;;39.17;27.60;;;9.70;99.90;;;;;;5046864;28;20185;-91
2021/10/21 05:50:45;;;;;;;36.47;24.70;;;9.70;99.90;;;;;;5049455;28;20197;-92
2021/10/21 05:53:11;;;;;;;38.60;27.27;;;9.70;99.90;;;;;;5051229;28;20189;-91
2021/10/21 05:55:37;;;;;;;35.33;26.65;;;9.70;99.90;;;;;;5051658;28;20197;-86
2021/10/21 05:58:04;;;;;;;41.38;27.85;;;9.80;99.90;;;;;;5049264;28;20217;-93
2021/10/21 06:00:29;;;;;;;37.95;25.63;;;9.80;99.90;;;;;;5052707;28;20204;-92
2021/10/21 06:02:57;;;;;;;39.00;26.33;;;9.90;99.90;;;;;;5050755;28;20545;-86
2021/10/21 06:05:23;;;;;;;40.08;26.48;;;9.90;99.90;;;;;;5064498;28;20267;-85
2021/10/21 06:07:49;;;;;;;37.53;24.70;;;10.00;99.90;;;;;;5069934;28;20194;-92
2021/10/21 06:10:15;;;;;;;36.30;25.23;;;10.00;99.90;;;;;;5066962;28;20438;-93
2021/10/21 06:12:43;;;;;;;39.22;25.33;;;10.10;99.90;;;;;;5067172;28;20200;-89
2021/10/21 06:15:09;;;;;;;36.38;24.17;;;10.10;99.90;;;;;;5070108;28;20201;-92
2021/10/21 06:17:35;;;;;;;43.38;25.63;;;10.20;99.90;;;;;;5058805;28;20526;-92
2021/10/21 06:20:01;;;;;;;35.42;24.70;;;10.30;99.90;;;;;;5064265;28;20205;-92
2021/10/21 06:22:27;;;;;;;36.42;22.85;;;10.40;99.90;;;;;;5053141;28;20220;-92
2021/10/21 06:24:54;;;;;;;32.95;23.08;;;10.50;99.90;;;;;;5052276;28;20194;-92
2021/10/21 06:27:21;;;;;;;38.72;23.27;;;10.70;99.90;;;;;;5060300;28;20273;-92
2021/10/21 06:29:48;;;;;;;27.58;21.50;;;10.80;99.90;;;;;;5053397;28;20237;-85
2021/10/21 06:32:15;;;;;;;31.00;22.85;;;10.90;99.90;;;;;;5047947;28;20506;-92
2021/10/21 06:34:42;;;;;;;28.55;20.80;;;11.10;99.90;;;;;;5044080;28;20586;-93
2021/10/21 06:37:08;;;;;;;32.08;22.27;;;11.20;99.90;;;;;;5046651;28;20228;-92
2021/10/21 06:39:34;;;;;;;27.83;22.02;;;11.30;99.90;;;;;;5054829;28;20213;-92
2021/10/21 06:42:00;;;;;;;33.63;22.90;;;11.40;99.90;;;;;;5061101;28;20232;-84
2021/10/21 06:44:26;;;;;;;32.78;20.70;;;11.50;99.90;;;;;;5056844;28;20574;-86
2021/10/21 06:46:52;;;;;;;34.30;21.63;;;11.60;99.90;;;;;;5061411;28;20197;-90
2021/10/21 06:49:18;;;;;;;26.47;19.80;;;11.70;99.90;;;;;;5066647;28;20471;-86
2021/10/21 06:51:44;;;;;;;31.30;22.55;;;11.80;99.90;;;;;;5059274;28;20309;-85
2021/10/21 06:54:10;;;;;;;30.60;21.60;;;11.90;99.90;;;;;;5058656;28;20186;-86
2021/10/21 06:56:36;;;;;;;29.10;21.37;;;12.00;99.90;;;;;;5066849;28;20197;-86
2021/10/21 06:59:02;;;;;;;29.75;20.23;;;12.10;99.90;;;;;;5058062;28;20209;-93
2021/10/21 07:01:31;;;;;;;30.07;16.63;;;12.20;99.90;;;;;;5058634;28;20198;-87
2021/10/21 07:04:00;;;;;;;30.88;20.50;;;12.40;99.90;;;;;;5052035;28;20545;-94
2021/10/21 07:06:26;;;;;;;28.07;19.43;;;12.40;99.90;;;;;;5046557;28;20441;-86
2021/10/21 07:08:53;;;;;;;28.10;19.63;;;12.60;99.90;;;;;;5052690;28;20439;-93
2021/10/21 07:11:19;;;;;;;29.67;20.00;;;12.70;99.90;;;;;;5049881;28;20508;-90
2021/10/21 07:13:45;;;;;;;21.07;11.77;;;12.80;99.90;;;;;;5053091;28;20486;-86
2021/10/21 07:16:12;;;;;;;23.10;16.20;;;13.00;99.90;;;;;;5053882;28;20194;-86
2021/10/21 07:18:38;;;;;;;26.63;16.90;;;13.00;99.90;;;;;;5054729;28;20474;-86
2021/10/21 07:21:03;;;;;;;26.30;17.70;;;13.10;99.90;;;;;;5054790;28;20470;-93
2021/10/21 07:23:29;;;;;;;23.97;16.50;;;13.20;99.90;;;;;;5054998;28;20186;-92
2021/10/21 07:25:56;;;;;;;26.87;15.33;;;13.40;99.90;;;;;;5055680;28;20204;-87
2021/10/21 07:28:22;;;;;;;24.80;15.80;;;13.50;99.90;;;;;;5062156;28;20205;-86
2021/10/21 07:30:59;;;;;;;21.97;14.17;;;13.70;99.90;;;;;;5066463;28;20458;-93
2021/10/21 07:33:26;;;;;;;22.03;14.00;;;13.90;99.90;;;;;;5054854;28;20474;-87
2021/10/21 07:35:51;;;;;;;18.13;14.80;;;14.20;99.90;;;;;;5051271;28;20463;-93
2021/10/21 07:38:17;;;;;;;18.77;13.33;;;14.40;99.90;;;;;;5052223;28;20542;-93
2021/10/21 07:40:48;;;;;;;21.90;14.53;;;14.80;99.90;;;;;;5050330;28;20962;-91
2021/10/21 07:43:17;;;;;;;18.90;13.70;;;15.10;99.90;;;;;;5047943;28;20285;-87
2021/10/21 07:45:44;;;;;;;22.00;16.80;;;15.50;99.90;;;;;;5055140;28;20451;-87
2021/10/21 07:48:10;;;;;;;18.43;14.20;;;15.70;99.90;;;;;;5055863;28;20431;-87
2021/10/21 07:50:37;;;;;;;23.00;15.67;;;16.00;99.90;;;;;;5051698;28;20452;-86
2021/10/21 07:53:04;;;;;;;16.57;12.83;;;16.20;99.90;;;;;;5054567;28;20442;-92
2021/10/21 07:55:35;;;;;;;15.87;11.23;;;16.50;99.90;;;;;;5055050;28;20525;-92
2021/10/21 07:58:01;;;;;;;14.47;11.23;;;16.80;99.90;;;;;;5061541;28;20554;-89
2021/10/21 08:00:27;;;;;;;16.20;11.20;;;16.90;99.90;;;;;;5060065;28;20434;-93
2021/10/21 08:02:54;;;;;;;11.30;8.73;;;17.00;99.90;;;;;;5054394;28;20430;-92
2021/10/21 08:05:20;;;;;;;16.90;9.67;;;17.20;99.90;;;;;;5054461;28;20447;-93
2021/10/21 08:07:47;;;;;;;14.50;10.20;;;17.50;99.90;;;;;;5053620;28;20446;-87
2021/10/21 08:10:14;;;;;;;8.83;7.50;;;18.00;99.90;;;;;;5051374;28;20450;-93
2021/10/21 08:12:41;;;;;;;11.63;8.87;;;18.60;99.90;;;;;;5050960;28;20962;-94
2021/10/21 08:15:09;;;;;;;10.17;8.57;;;19.10;99.90;;;;;;5056161;28;20981;-90
2021/10/21 08:17:36;;;;;;;10.43;8.57;;;19.50;99.90;;;;;;5049764;28;20526;-87
2021/10/21 08:20:05;;;;;;;9.47;8.30;;;20.10;99.90;;;;;;5053823;28;20463;-86
2021/10/21 08:22:32;;;;;;;8.80;7.90;;;20.50;99.90;;;;;;5050225;28;20497;-87
2021/10/21 08:24:59;;;;;;;12.50;8.80;;;20.90;99.90;;;;;;5052194;28;20456;-94
2021/10/21 08:27:29;;;;;;;10.13;7.40;;;21.10;99.40;;;;;;5052642;28;20493;-87
2021/10/21 08:29:54;;;;;;;8.33;7.43;;;21.10;97.90;;;;;;5037371;28;20465;-94
2021/10/21 08:32:21;;;;;;;9.70;7.83;;;21.10;97.90;;;;;;5053859;28;20484;-86
2021/10/21 08:34:48;;;;;;;8.73;7.70;;;21.10;97.60;;;;;;5045680;28;20450;-87
2021/10/21 08:37:14;;;;;;;11.60;7.97;;;21.10;97.10;;;;;;5050086;28;20445;-93
2021/10/21 08:39:42;;;;;;;8.70;7.33;;;20.70;97.50;;;;;;5052089;28;20484;-94
2021/10/21 08:42:10;;;;;;;10.53;8.40;;;20.40;98.30;;;;;;5049788;28;20197;-87
2021/10/21 08:44:37;;;;;;;9.60;7.40;;;20.00;97.80;;;;;;5056607;28;20911;-94
2021/10/21 08:47:06;;;;;;;8.33;7.20;;;19.80;98.20;;;;;;5049791;28;20430;-94
2021/10/21 08:49:36;;;;;;;7.70;6.83;;;19.70;98.00;;;;;;5052974;28;20462;-87
2021/10/21 08:52:01;;;;;;;8.33;7.33;;;19.70;98.00;;;;;;5051687;28;20442;-88
2021/10/21 08:54:29;;;;;;;13.17;7.70;;;19.90;97.90;;;;;;5050435;28;21021;-87
2021/10/21 08:56:56;;;;;;;12.10;6.67;;;20.00;97.10;;;;;;5049031;28;20582;-88
2021/10/21 08:59:23;;;;;;;8.27;6.27;;;20.00;97.00;;;;;;5049576;28;20492;-96
2021/10/21 09:02:00;;;;;;;8.37;7.30;;;20.00;96.70;;;;;;5048648;28;20884;-88
2021/10/21 09:04:35;;;;;;;10.83;7.30;;;19.90;97.10;;;;;;5051207;28;20434;-95
2021/10/21 09:09:47;;;;;;;8.60;7.17;;;19.70;97.20;;;;;;5053461;28;20966;-88
2021/10/21 09:12:17;;;;;;;9.17;6.40;;;19.60;97.70;;;;;;5049998;28;20445;-94
2021/10/21 09:14:45;;;;;;;6.30;5.00;;;19.60;97.00;;;;;;5050194;28;20568;-95
2021/10/21 09:17:15;;;;;;;9.70;6.40;;;19.60;97.00;;;;;;5053036;28;20776;-95
2021/10/21 09:19:43;;;;;;;11.97;6.07;;;19.60;96.60;;;;;;5045796;28;20530;-95
2021/10/21 09:22:28;;;;;;;9.23;6.00;;;19.60;96.10;;;;;;5047701;28;20453;-87
2021/10/21 09:25:04;;;;;;;8.90;6.40;;;19.70;96.10;;;;;;5039417;28;20524;-88
2021/10/21 09:27:35;;;;;;;8.10;7.30;;;19.70;95.90;;;;;;5050694;28;20456;-88
2021/10/21 09:30:05;;;;;;;5.10;4.60;;;19.70;95.20;;;;;;5047574;28;20456;-95
2021/10/21 09:32:35;;;;;;;9.20;6.00;;;19.80;94.90;;;;;;5045154;28;20437;-96
2021/10/21 09:35:07;;;;;;;10.13;6.63;;;19.80;94.60;;;;;;5049104;28;20461;-96
2021/10/21 09:37:41;;;;;;;7.90;6.37;;;19.70;95.10;;;;;;5042143;28;20469;-88
2021/10/21 09:40:09;;;;;;;9.83;8.90;;;19.80;94.80;;;;;;5048556;28;20450;-96
2021/10/21 09:42:37;;;;;;;5.50;5.00;;;19.80;95.30;;;;;;5048016;28;20952;-88
2021/10/21 09:45:21;;;;;;;6.57;5.00;;;19.80;94.70;;;;;;5046256;28;20459;-89
2021/10/21 09:47:53;;;;;;;13.87;5.60;;;19.90;95.10;;;;;;5049668;28;20443;-96
2021/10/21 09:50:22;;;;;;;6.87;6.10;;;19.90;95.40;;;;;;5049415;28;20461;-88
2021/10/21 09:53:20;;;;;;;8.13;4.60;;;20.00;95.30;;;;;;5052609;28;20805;-88
2021/10/21 09:55:55;;;;;;;7.53;5.90;;;20.10;97.30;;;;;;5044996;28;20853;-95
2021/10/21 09:58:25;;;;;;;6.93;6.03;;;20.10;95.60;;;;;;5052436;28;20673;-96
2021/10/21 10:01:03;;;;;;;7.20;6.23;;;20.20;95.20;;;;;;5050561;28;20450;-88
2021/10/21 10:03:33;;;;;;;6.80;5.43;;;20.20;95.40;;;;;;5047245;28;20438;-96
2021/10/21 10:05:59;;;;;;;6.87;4.80;;;20.20;95.30;;;;;;5050904;28;20454;-94
2021/10/21 10:08:31;;;;;;;10.53;5.67;;;20.20;95.60;;;;;;5045126;28;20440;-95
2021/10/21 10:11:00;;;;;;;8.40;6.07;;;20.10;95.70;;;;;;5030909;28;20543;-95
2021/10/21 10:13:28;;;;;;;8.40;6.13;;;20.20;96.10;;;;;;5051677;28;20507;-88
2021/10/21 10:15:58;;;;;;;5.97;4.63;;;20.20;95.90;;;;;;5052189;28;20445;-88
2021/10/21 10:18:29;;;;;;;7.27;5.80;;;20.20;96.10;;;;;;5051242;28;20505;-88
2021/10/21 10:21:31;;;;;;;8.40;5.23;;;20.30;96.00;;;;;;5050227;28;20449;-94
2021/10/21 10:24:02;;;;;;;5.93;5.13;;;20.30;96.10;;;;;;5048649;28;20448;-96
2021/10/21 10:26:48;;;;;;;7.90;5.37;;;20.30;95.90;;;;;;5052584;28;20494;-94
2021/10/21 10:29:31;;;;;;;7.40;5.87;;;20.40;96.10;;;;;;5049523;28;20454;-95
2021/10/21 10:32:00;;;;;;;10.37;7.37;;;20.40;96.10;;;;;;5050209;28;20522;-87
2021/10/21 10:34:35;;;;;;;7.73;5.07;;;20.30;96.30;;;;;;5046573;28;20468;-95
2021/10/21 10:37:17;;;;;;;10.37;6.10;;;20.40;96.30;;;;;;5060573;28;20433;-88
2021/10/21 10:39:50;;;;;;;9.90;5.60;;;20.30;96.20;;;;;;5059692;28;20492;-87
2021/10/21 10:42:41;;;;;;;8.10;5.80;;;20.40;96.30;;;;;;5047306;28;20788;-87
2021/10/21 10:45:12;;;;;;;8.00;6.53;;;20.30;96.30;;;;;;5038102;28;20506;-87
2021/10/21 10:47:54;;;;;;;7.30;6.60;;;20.40;96.50;;;;;;5052704;28;20418;-96
2021/10/21 10:50:26;;;;;;;8.00;6.33;;;20.50;96.60;;;;;;5068254;28;20462;-95
2021/10/21 10:53:00;;;;;;;9.50;6.07;;;20.60;96.60;;;;;;5053024;28;20445;-95
2021/10/21 10:55:50;;;;;;;9.17;6.33;;;20.60;96.20;;;;;;5054083;28;20489;-87
2021/10/21 10:58:24;;;;;;;14.70;6.87;;;20.60;95.90;;;;;;5049305;28;20478;-96
2021/10/21 11:00:54;;;;;;;8.53;7.10;;;20.50;96.00;;;;;;5078242;28;20493;-88
2021/10/21 11:03:35;;;;;;;7.40;5.50;;;20.40;96.20;;;;;;5069691;28;20453;-87
2021/10/21 11:06:16;;;;;;;8.80;6.40;;;20.40;96.40;;;;;;5054806;28;20458;-87
2021/10/21 11:09:07;;;;;;;11.97;6.93;;;20.30;96.50;;;;;;5046990;28;20449;-88
2021/10/21 11:11:58;;;;;;;11.73;6.20;;;20.30;96.40;;;;;;5043888;28;20457;-87
2021/10/21 11:14:31;;;;;;;10.93;5.97;;;20.30;96.50;;;;;;5047459;28;21317;-96
2021/10/21 11:16:57;;;;;;;7.30;6.50;;;20.20;96.50;;;;;;5051737;28;20433;-96
2021/10/21 11:19:43;;;;;;;11.70;6.20;;;20.20;96.80;;;;;;5044236;28;20481;-87
2021/10/21 11:22:30;;;;;;;8.03;7.23;;;20.20;96.90;;;;;;5050367;28;20808;-95
2021/10/21 11:25:08;;;;;;;12.03;6.73;;;20.20;96.70;;;;;;5038626;28;20455;-88
2021/10/21 11:27:37;;;;;;;20.20;10.93;;;20.30;97.00;;;;;;5054487;28;20448;-87
2021/10/21 11:30:12;;;;;;;19.47;13.40;;;20.30;96.80;;;;;;5062638;28;20449;-95
2021/10/21 11:32:40;;;;;;;23.00;15.33;;;20.40;96.90;;;;;;5058498;28;20980;-94
2021/10/21 11:35:13;;;;;;;9.17;7.00;;;20.40;96.70;;;;;;5055663;28;20443;-87
2021/10/21 11:37:50;;;;;;;7.47;5.37;;;20.50;96.60;;;;;;5049831;28;20434;-95
2021/10/21 11:40:27;;;;;;;7.83;6.07;;;20.50;96.40;;;;;;5054677;28;20600;-96
2021/10/21 11:42:59;;;;;;;7.40;6.10;;;20.50;96.40;;;;;;5055973;28;20536;-96
2021/10/21 11:45:32;;;;;;;12.00;6.97;;;20.50;96.30;;;;;;5053912;28;20547;-96
2021/10/21 11:48:04;;;;;;;11.67;8.53;;;20.50;96.40;;;;;;5053476;28;20463;-88
2021/10/21 11:50:36;;;;;;;29.30;16.27;;;20.60;96.60;;;;;;5063933;28;20465;-96
2021/10/21 11:53:02;;;;;;;22.47;13.60;;;20.60;96.40;;;;;;5053899;28;21121;-88
2021/10/21 11:55:29;;;;;;;15.93;10.20;;;20.60;96.30;;;;;;5053160;28;21071;-88
2021/10/21 11:58:00;;;;;;;19.60;13.03;;;20.70;96.40;;;;;;5048274;28;20457;-88
2021/10/21 12:00:28;;;;;;;9.43;7.10;;;20.70;96.50;;;;;;5048422;28;20553;-88
2021/10/21 12:02:56;;;;;;;9.67;7.57;;;20.70;96.60;;;;;;5048193;28;20450;-96
2021/10/21 12:05:31;;;;;;;10.20;6.63;;;20.70;96.70;;;;;;5053348;28;20464;-88
2021/10/21 12:07:58;;;;;;;15.83;8.70;;;20.80;96.80;;;;;;5048888;28;20500;-96
2021/10/21 12:10:29;;;;;;;15.33;10.53;;;20.80;96.80;;;;;;5046008;28;21038;-88
2021/10/21 12:12:56;;;;;;;12.17;7.97;;;20.90;96.80;;;;;;5049388;28;20485;-88
2021/10/21 12:15:28;;;;;;;8.10;7.17;;;20.90;96.90;;;;;;5054273;28;20481;-88
2021/10/21 12:17:55;;;;;;;11.33;6.93;;;21.00;96.90;;;;;;5053514;28;20433;-87
2021/10/21 12:20:45;;;;;;;12.00;6.33;;;21.00;96.70;;;;;;5059048;28;20450;-88
2021/10/21 12:23:50;;;;;;;8.60;6.50;;;21.00;96.70;;;;;;5059581;28;20904;-95
2021/10/21 12:26:24;;;;;;;10.03;6.90;;;21.00;96.80;;;;;;5069736;28;20457;-96
2021/10/21 12:28:52;;;;;;;9.00;5.57;;;21.10;96.90;;;;;;5069399;28;20465;-88
2021/10/21 12:31:20;;;;;;;11.00;7.40;;;21.10;97.20;;;;;;5050712;28;20458;-95
2021/10/21 12:34:00;;;;;;;7.97;6.30;;;21.20;96.90;;;;;;5055330;28;20404;-87
2021/10/21 12:36:30;;;;;;;7.97;7.20;;;21.20;96.60;;;;;;5050850;28;20798;-95
2021/10/21 12:39:32;;;;;;;10.33;6.20;;;21.30;96.70;;;;;;5052506;28;20473;-87
2021/10/21 12:42:07;;;;;;;8.17;6.67;;;21.30;96.40;;;;;;5031862;28;20539;-95
2021/10/21 12:44:38;;;;;;;11.83;7.27;;;21.30;96.60;;;;;;5048462;28;20462;-95
2021/10/21 12:47:25;;;;;;;13.43;6.90;;;21.30;96.70;;;;;;5035656;28;20507;-87